sensor_id;sensor_type;location;lat;lon;timestamp;pressure;altitude;pressure_sealevel;temperature;humidity
51926;BME280;37952;51.938;15.480;2023-03-15T00:01:12;98835.35;;;1.55;83.41
51926;BME280;37952;51.938;15.480;2023-03-15T00:04:18;98839.15;;;1.56;83.44
51926;BME280;37952;51.938;15.480;2023-03-15T00:07:21;98841.83;;;1.53;83.31
51926;BME280;37952;51.938;15.480;2023-03-15T00:10:28;98829.27;;;1.37;83.23
51926;BME280;37952;51.938;15.480;2023-03-15T00:13:32;98844.95;;;1.40;83.16
51926;BME280;37952;51.938;15.480;2023-03-15T00:16:35;98850.05;;;1.38;83.14
51926;BME280;37952;51.938;15.480;2023-03-15T00:19:38;98858.70;;;1.34;83.05
51926;BME280;37952;51.938;15.480;2023-03-15T00:22:41;98858.73;;;1.33;83.11
51926;BME280;37952;51.938;15.480;2023-03-15T00:25:46;98867.27;;;1.32;83.10
51926;BME280;37952;51.938;15.480;2023-03-15T00:28:49;98876.13;;;1.32;83.08
51926;BME280;37952;51.938;15.480;2023-03-15T00:31:52;98884.36;;;1.30;83.02
51926;BME280;37952;51.938;15.480;2023-03-15T00:35:04;98892.13;;;1.27;82.88
51926;BME280;37952;51.938;15.480;2023-03-15T00:38:07;98894.70;;;1.23;82.93
51926;BME280;37952;51.938;15.480;2023-03-15T00:41:13;98900.08;;;1.18;82.87
51926;BME280;37952;51.938;15.480;2023-03-15T00:44:16;98906.84;;;1.18;82.90
51926;BME280;37952;51.938;15.480;2023-03-15T00:47:20;98905.38;;;1.10;82.83
51926;BME280;37952;51.938;15.480;2023-03-15T00:50:23;98912.15;;;1.06;82.62
51926;BME280;37952;51.938;15.480;2023-03-15T00:53:25;98906.77;;;1.05;82.64
51926;BME280;37952;51.938;15.480;2023-03-15T00:56:28;98913.15;;;1.01;82.45
51926;BME280;37952;51.938;15.480;2023-03-15T00:59:34;98920.17;;;0.99;82.54
51926;BME280;37952;51.938;15.480;2023-03-15T01:02:37;98928.06;;;0.97;82.39
51926;BME280;37952;51.938;15.480;2023-03-15T01:05:40;98934.19;;;0.96;82.39
51926;BME280;37952;51.938;15.480;2023-03-15T01:08:43;98927.77;;;1.00;82.42
51926;BME280;37952;51.938;15.480;2023-03-15T01:11:46;98938.71;;;1.05;82.44
51926;BME280;37952;51.938;15.480;2023-03-15T01:14:49;98942.26;;;0.98;82.25
51926;BME280;37952;51.938;15.480;2023-03-15T01:17:52;98939.94;;;0.95;82.16
51926;BME280;37952;51.938;15.480;2023-03-15T01:20:55;98948.66;;;0.93;82.09
51926;BME280;37952;51.938;15.480;2023-03-15T01:23:58;98951.89;;;0.85;81.99
51926;BME280;37952;51.938;15.480;2023-03-15T01:27:00;98957.48;;;0.89;82.00
51926;BME280;37952;51.938;15.480;2023-03-15T01:30:04;98964.95;;;0.89;81.96
51926;BME280;37952;51.938;15.480;2023-03-15T01:33:19;98969.38;;;0.86;81.96
51926;BME280;37952;51.938;15.480;2023-03-15T01:36:23;98975.77;;;0.87;81.87
51926;BME280;37952;51.938;15.480;2023-03-15T01:39:26;98974.86;;;0.93;81.99
51926;BME280;37952;51.938;15.480;2023-03-15T01:42:28;98980.05;;;0.94;81.92
51926;BME280;37952;51.938;15.480;2023-03-15T01:46:01;98978.61;;;0.91;81.86
51926;BME280;37952;51.938;15.480;2023-03-15T01:49:26;98980.75;;;0.83;81.68
51926;BME280;37952;51.938;15.480;2023-03-15T01:52:34;98979.64;;;0.85;81.72
51926;BME280;37952;51.938;15.480;2023-03-15T01:55:38;98981.95;;;0.89;81.72
51926;BME280;37952;51.938;15.480;2023-03-15T01:58:43;98987.02;;;0.88;81.73
51926;BME280;37952;51.938;15.480;2023-03-15T02:01:48;98984.81;;;0.86;81.59
51926;BME280;37952;51.938;15.480;2023-03-15T02:05:20;98987.54;;;0.82;81.45
51926;BME280;37952;51.938;15.480;2023-03-15T02:08:29;98984.50;;;0.80;81.47
51926;BME280;37952;51.938;15.480;2023-03-15T02:15:09;98990.23;;;0.80;81.46
51926;BME280;37952;51.938;15.480;2023-03-15T02:18:14;98996.73;;;0.77;81.41
51926;BME280;37952;51.938;15.480;2023-03-15T02:21:32;99005.93;;;0.71;81.33
51926;BME280;37952;51.938;15.480;2023-03-15T02:28:29;99008.64;;;0.63;81.37
51926;BME280;37952;51.938;15.480;2023-03-15T02:31:33;99014.20;;;0.63;81.26
51926;BME280;37952;51.938;15.480;2023-03-15T02:34:51;99020.46;;;0.56;81.27
51926;BME280;37952;51.938;15.480;2023-03-15T02:37:54;99022.20;;;0.51;81.27
51926;BME280;37952;51.938;15.480;2023-03-15T02:40:57;99029.73;;;0.48;81.28
51926;BME280;37952;51.938;15.480;2023-03-15T02:44:15;99026.81;;;0.47;81.23
51926;BME280;37952;51.938;15.480;2023-03-15T02:47:21;99040.98;;;0.49;81.24
51926;BME280;37952;51.938;15.480;2023-03-15T02:50:26;99043.02;;;0.45;81.17
51926;BME280;37952;51.938;15.480;2023-03-15T02:53:29;99045.98;;;0.44;81.15
51926;BME280;37952;51.938;15.480;2023-03-15T03:00:08;99055.02;;;0.38;80.99
51926;BME280;37952;51.938;15.480;2023-03-15T03:03:18;99056.69;;;0.40;80.92
51926;BME280;37952;51.938;15.480;2023-03-15T03:06:21;99056.31;;;0.41;80.88
51926;BME280;37952;51.938;15.480;2023-03-15T03:09:24;99058.39;;;0.41;80.77
51926;BME280;37952;51.938;15.480;2023-03-15T03:12:27;99067.55;;;0.42;80.60
51926;BME280;37952;51.938;15.480;2023-03-15T03:15:29;99070.03;;;0.46;80.55
51926;BME280;37952;51.938;15.480;2023-03-15T03:18:32;99072.30;;;0.45;80.42
51926;BME280;37952;51.938;15.480;2023-03-15T03:21:38;99070.06;;;0.44;80.38
51926;BME280;37952;51.938;15.480;2023-03-15T03:24:40;99079.52;;;0.53;80.44
51926;BME280;37952;51.938;15.480;2023-03-15T03:27:47;99077.48;;;0.58;80.44
51926;BME280;37952;51.938;15.480;2023-03-15T03:30:52;99075.95;;;0.50;80.31
51926;BME280;37952;51.938;15.480;2023-03-15T03:33:55;99093.27;;;0.57;80.30
51926;BME280;37952;51.938;15.480;2023-03-15T03:36:58;99097.77;;;0.57;80.09
51926;BME280;37952;51.938;15.480;2023-03-15T03:40:07;99096.67;;;0.59;80.04
51926;BME280;37952;51.938;15.480;2023-03-15T03:43:10;99103.96;;;0.65;80.19
51926;BME280;37952;51.938;15.480;2023-03-15T03:46:13;99114.48;;;0.67;79.86
51926;BME280;37952;51.938;15.480;2023-03-15T03:49:19;99114.67;;;0.66;79.89
51926;BME280;37952;51.938;15.480;2023-03-15T03:52:23;99124.27;;;0.59;79.42
51926;BME280;37952;51.938;15.480;2023-03-15T03:55:26;99125.77;;;0.55;79.40
51926;BME280;37952;51.938;15.480;2023-03-15T03:58:28;99137.00;;;0.50;79.17
51926;BME280;37952;51.938;15.480;2023-03-15T04:01:31;99136.48;;;0.49;79.28
51926;BME280;37952;51.938;15.480;2023-03-15T04:04:35;99136.97;;;0.51;79.31
51926;BME280;37952;51.938;15.480;2023-03-15T04:07:37;99148.09;;;0.50;79.19
51926;BME280;37952;51.938;15.480;2023-03-15T04:10:40;99146.66;;;0.46;79.15
51926;BME280;37952;51.938;15.480;2023-03-15T04:13:43;99151.59;;;0.49;79.24
51926;BME280;37952;51.938;15.480;2023-03-15T04:16:49;99159.77;;;0.54;79.23
51926;BME280;37952;51.938;15.480;2023-03-15T04:19:51;99166.16;;;0.61;79.23
51926;BME280;37952;51.938;15.480;2023-03-15T04:22:54;99168.52;;;0.64;79.10
51926;BME280;37952;51.938;15.480;2023-03-15T04:25:57;99168.86;;;0.64;78.99
51926;BME280;37952;51.938;15.480;2023-03-15T04:29:00;99170.08;;;0.64;78.89
51926;BME280;37952;51.938;15.480;2023-03-15T04:32:03;99173.75;;;0.63;78.81
51926;BME280;37952;51.938;15.480;2023-03-15T04:35:07;99181.97;;;0.67;78.78
51926;BME280;37952;51.938;15.480;2023-03-15T04:38:10;99173.95;;;0.68;78.78
51926;BME280;37952;51.938;15.480;2023-03-15T04:41:14;99173.34;;;0.65;78.62
51926;BME280;37952;51.938;15.480;2023-03-15T04:44:18;99178.48;;;0.61;78.48
51926;BME280;37952;51.938;15.480;2023-03-15T04:47:20;99182.45;;;0.56;78.25
51926;BME280;37952;51.938;15.480;2023-03-15T04:50:24;99187.90;;;0.58;78.38
51926;BME280;37952;51.938;15.480;2023-03-15T04:53:27;99190.96;;;0.61;78.33
51926;BME280;37952;51.938;15.480;2023-03-15T04:56:30;99201.02;;;0.55;77.91
51926;BME280;37952;51.938;15.480;2023-03-15T05:06:53;99215.63;;;0.60;78.06
51926;BME280;37952;51.938;15.480;2023-03-15T05:09:56;99218.63;;;0.52;77.69
51926;BME280;37952;51.938;15.480;2023-03-15T05:12:58;99219.73;;;0.50;77.75
51926;BME280;37952;51.938;15.480;2023-03-15T05:16:01;99233.13;;;0.54;77.84
51926;BME280;37952;51.938;15.480;2023-03-15T05:19:04;99237.48;;;0.53;77.78
51926;BME280;37952;51.938;15.480;2023-03-15T05:22:07;99243.20;;;0.54;77.92
51926;BME280;37952;51.938;15.480;2023-03-15T05:25:10;99251.66;;;0.55;77.81
51926;BME280;37952;51.938;15.480;2023-03-15T05:28:13;99249.05;;;0.48;77.65
51926;BME280;37952;51.938;15.480;2023-03-15T05:31:19;99245.90;;;0.44;77.63
51926;BME280;37952;51.938;15.480;2023-03-15T05:34:46;99260.48;;;0.43;77.53
51926;BME280;37952;51.938;15.480;2023-03-15T05:37:48;99265.38;;;0.42;77.47
51926;BME280;37952;51.938;15.480;2023-03-15T05:40:52;99269.94;;;0.46;77.59
51926;BME280;37952;51.938;15.480;2023-03-15T05:43:56;99272.52;;;0.47;77.49
51926;BME280;37952;51.938;15.480;2023-03-15T05:46:59;99279.19;;;0.44;77.44
51926;BME280;37952;51.938;15.480;2023-03-15T05:50:02;99283.10;;;0.46;77.45
51926;BME280;37952;51.938;15.480;2023-03-15T05:53:06;99290.14;;;0.49;77.42
51926;BME280;37952;51.938;15.480;2023-03-15T05:56:09;99297.65;;;0.54;77.43
51926;BME280;37952;51.938;15.480;2023-03-15T05:59:12;99298.35;;;0.59;77.41
51926;BME280;37952;51.938;15.480;2023-03-15T06:02:24;99316.23;;;0.66;77.39
51926;BME280;37952;51.938;15.480;2023-03-15T06:05:26;99318.95;;;0.68;77.21
51926;BME280;37952;51.938;15.480;2023-03-15T06:08:29;99327.17;;;0.72;77.28
51926;BME280;37952;51.938;15.480;2023-03-15T06:11:32;99336.45;;;0.75;77.16
51926;BME280;37952;51.938;15.480;2023-03-15T06:14:40;99334.58;;;0.74;76.89
51926;BME280;37952;51.938;15.480;2023-03-15T06:17:43;99345.41;;;0.77;77.00
51926;BME280;37952;51.938;15.480;2023-03-15T06:20:46;99342.95;;;0.79;76.79
51926;BME280;37952;51.938;15.480;2023-03-15T06:23:48;99351.89;;;0.82;76.89
51926;BME280;37952;51.938;15.480;2023-03-15T06:26:51;99351.66;;;0.83;76.93
51926;BME280;37952;51.938;15.480;2023-03-15T06:30:04;99358.50;;;0.81;76.70
51926;BME280;37952;51.938;15.480;2023-03-15T06:33:07;99364.81;;;0.78;76.80
51926;BME280;37952;51.938;15.480;2023-03-15T06:36:10;99368.72;;;0.82;76.73
51926;BME280;37952;51.938;15.480;2023-03-15T06:39:13;99370.89;;;0.78;76.55
51926;BME280;37952;51.938;15.480;2023-03-15T06:42:16;99377.42;;;0.87;76.70
51926;BME280;37952;51.938;15.480;2023-03-15T06:45:19;99379.64;;;0.94;76.86
51926;BME280;37952;51.938;15.480;2023-03-15T06:48:21;99382.73;;;1.03;76.82
51926;BME280;37952;51.938;15.480;2023-03-15T06:51:24;99384.73;;;1.05;76.57
51926;BME280;37952;51.938;15.480;2023-03-15T06:54:27;99391.71;;;1.10;76.44
51926;BME280;37952;51.938;15.480;2023-03-15T06:57:30;99395.83;;;1.12;76.49
51926;BME280;37952;51.938;15.480;2023-03-15T07:00:33;99406.52;;;1.15;76.27
51926;BME280;37952;51.938;15.480;2023-03-15T07:03:35;99406.27;;;1.12;76.00
51926;BME280;37952;51.938;15.480;2023-03-15T07:06:38;99404.90;;;1.11;76.01
51926;BME280;37952;51.938;15.480;2023-03-15T07:09:41;99409.05;;;1.11;75.95
51926;BME280;37952;51.938;15.480;2023-03-15T07:12:44;99421.52;;;1.19;76.06
51926;BME280;37952;51.938;15.480;2023-03-15T07:15:52;99421.11;;;1.21;75.91
51926;BME280;37952;51.938;15.480;2023-03-15T07:18:55;99426.96;;;1.23;75.67
51926;BME280;37952;51.938;15.480;2023-03-15T07:22:00;99438.74;;;1.24;75.46
51926;BME280;37952;51.938;15.480;2023-03-15T07:25:03;99444.29;;;1.31;75.68
51926;BME280;37952;51.938;15.480;2023-03-15T07:28:08;99445.38;;;1.35;75.67
51926;BME280;37952;51.938;15.480;2023-03-15T07:31:11;99451.63;;;1.42;75.82
51926;BME280;37952;51.938;15.480;2023-03-15T07:34:14;99453.59;;;1.46;75.63
51926;BME280;37952;51.938;15.480;2023-03-15T07:40:45;99458.26;;;1.41;74.48
51926;BME280;37952;51.938;15.480;2023-03-15T07:43:48;99457.04;;;1.41;74.66
51926;BME280;37952;51.938;15.480;2023-03-15T07:46:51;99457.64;;;1.44;75.05
51926;BME280;37952;51.938;15.480;2023-03-15T07:49:54;99455.89;;;1.51;75.13
51926;BME280;37952;51.938;15.480;2023-03-15T07:57:11;99458.02;;;1.56;74.76
51926;BME280;37952;51.938;15.480;2023-03-15T08:00:15;99457.29;;;1.63;74.90
51926;BME280;37952;51.938;15.480;2023-03-15T08:03:18;99467.83;;;1.65;74.53
51926;BME280;37952;51.938;15.480;2023-03-15T08:06:21;99458.36;;;1.62;74.06
51926;BME280;37952;51.938;15.480;2023-03-15T08:09:24;99460.95;;;1.68;74.18
51926;BME280;37952;51.938;15.480;2023-03-15T08:12:26;99456.81;;;1.67;73.73
51926;BME280;37952;51.938;15.480;2023-03-15T08:15:29;99452.89;;;1.71;74.07
51926;BME280;37952;51.938;15.480;2023-03-15T08:18:32;99458.31;;;1.76;73.89
51926;BME280;37952;51.938;15.480;2023-03-15T08:29:23;99466.27;;;1.83;72.47
51926;BME280;37952;51.938;15.480;2023-03-15T08:32:25;99464.61;;;1.86;72.74
51926;BME280;37952;51.938;15.480;2023-03-15T08:35:30;99468.89;;;1.94;72.99
51926;BME280;37952;51.938;15.480;2023-03-15T08:38:34;99477.90;;;2.01;72.73
51926;BME280;37952;51.938;15.480;2023-03-15T08:41:37;99479.83;;;2.07;72.96
51926;BME280;37952;51.938;15.480;2023-03-15T08:44:40;99482.03;;;2.09;72.44
51926;BME280;37952;51.938;15.480;2023-03-15T08:47:43;99485.05;;;2.12;72.27
51926;BME280;37952;51.938;15.480;2023-03-15T08:50:46;99493.30;;;2.21;71.87
51926;BME280;37952;51.938;15.480;2023-03-15T08:53:49;99494.05;;;2.25;71.58
51926;BME280;37952;51.938;15.480;2023-03-15T08:56:52;99487.79;;;2.31;71.84
51926;BME280;37952;51.938;15.480;2023-03-15T09:00:06;99488.21;;;2.34;71.73
51926;BME280;37952;51.938;15.480;2023-03-15T09:03:10;99493.02;;;2.36;71.60
51926;BME280;37952;51.938;15.480;2023-03-15T09:06:13;99498.48;;;2.46;71.67
51926;BME280;37952;51.938;15.480;2023-03-15T09:13:00;99513.63;;;2.62;70.69
51926;BME280;37952;51.938;15.480;2023-03-15T09:16:03;99516.88;;;2.69;71.06
51926;BME280;37952;51.938;15.480;2023-03-15T09:19:11;99526.74;;;2.71;70.78
51926;BME280;37952;51.938;15.480;2023-03-15T09:22:30;99542.33;;;2.67;69.69
51926;BME280;37952;51.938;15.480;2023-03-15T09:25:41;99535.56;;;2.66;70.04
51926;BME280;37952;51.938;15.480;2023-03-15T09:28:44;99540.06;;;2.73;70.11
51926;BME280;37952;51.938;15.480;2023-03-15T09:35:41;99534.96;;;2.80;70.38
51926;BME280;37952;51.938;15.480;2023-03-15T09:38:44;99541.67;;;2.82;70.46
51926;BME280;37952;51.938;15.480;2023-03-15T09:41:52;99539.80;;;2.87;70.65
51926;BME280;37952;51.938;15.480;2023-03-15T09:45:06;99545.65;;;3.00;70.62
51926;BME280;37952;51.938;15.480;2023-03-15T09:58:12;99551.20;;;3.43;69.23
51926;BME280;37952;51.938;15.480;2023-03-15T10:01:17;99539.50;;;3.54;69.34
51926;BME280;37952;51.938;15.480;2023-03-15T10:07:29;99552.73;;;3.44;67.42
51926;BME280;37952;51.938;15.480;2023-03-15T10:10:37;99554.22;;;3.31;67.48
51926;BME280;37952;51.938;15.480;2023-03-15T10:16:53;99557.65;;;3.32;68.36
51926;BME280;37952;51.938;15.480;2023-03-15T10:20:06;99552.39;;;3.39;68.54
51926;BME280;37952;51.938;15.480;2023-03-15T10:23:17;99550.03;;;3.46;68.21
51926;BME280;37952;51.938;15.480;2023-03-15T10:26:24;99558.96;;;3.50;68.46
51926;BME280;37952;51.938;15.480;2023-03-15T10:29:29;99561.70;;;3.46;67.83
51926;BME280;37952;51.938;15.480;2023-03-15T10:32:37;99567.27;;;3.46;67.60
51926;BME280;37952;51.938;15.480;2023-03-15T10:35:42;99577.64;;;3.44;65.26
51926;BME280;37952;51.938;15.480;2023-03-15T10:38:45;99574.67;;;3.39;64.75
51926;BME280;37952;51.938;15.480;2023-03-15T10:45:38;99589.34;;;3.43;63.54
51926;BME280;37952;51.938;15.480;2023-03-15T10:49:05;99570.84;;;3.44;64.78
51926;BME280;37952;51.938;15.480;2023-03-15T10:52:46;99568.41;;;3.34;63.64
51926;BME280;37952;51.938;15.480;2023-03-15T10:56:03;99574.83;;;3.29;64.11
51926;BME280;37952;51.938;15.480;2023-03-15T10:59:15;99577.60;;;3.29;64.29
51926;BME280;37952;51.938;15.480;2023-03-15T11:02:22;99591.44;;;3.27;63.87
51926;BME280;37952;51.938;15.480;2023-03-15T11:05:37;99587.86;;;3.30;63.95
51926;BME280;37952;51.938;15.480;2023-03-15T11:08:40;99577.70;;;3.42;64.09
51926;BME280;37952;51.938;15.480;2023-03-15T11:22:35;99582.19;;;3.74;61.92
51926;BME280;37952;51.938;15.480;2023-03-15T11:25:38;99578.34;;;3.79;62.22
51926;BME280;37952;51.938;15.480;2023-03-15T11:32:26;99580.77;;;3.89;62.55
51926;BME280;37952;51.938;15.480;2023-03-15T11:35:41;99574.09;;;4.01;62.95
51926;BME280;37952;51.938;15.480;2023-03-15T11:38:53;99573.39;;;4.15;64.45
51926;BME280;37952;51.938;15.480;2023-03-15T11:42:01;99571.42;;;4.35;64.91
51926;BME280;37952;51.938;15.480;2023-03-15T11:45:39;99572.61;;;4.55;62.41
51926;BME280;37952;51.938;15.480;2023-03-15T11:51:56;99571.06;;;4.94;64.01
51926;BME280;37952;51.938;15.480;2023-03-15T11:55:00;99567.73;;;5.04;63.55
51926;BME280;37952;51.938;15.480;2023-03-15T11:58:32;99565.41;;;5.13;62.67
51926;BME280;37952;51.938;15.480;2023-03-15T12:01:36;99566.60;;;5.23;62.40
51926;BME280;37952;51.938;15.480;2023-03-15T12:11:41;99584.18;;;4.89;59.23
51926;BME280;37952;51.938;15.480;2023-03-15T12:14:44;99577.15;;;4.77;58.75
51926;BME280;37952;51.938;15.480;2023-03-15T12:17:53;99569.83;;;4.82;59.69
51926;BME280;37952;51.938;15.480;2023-03-15T12:21:07;99569.00;;;4.98;59.39
51926;BME280;37952;51.938;15.480;2023-03-15T12:24:34;99554.05;;;5.22;59.81
51926;BME280;37952;51.938;15.480;2023-03-15T12:27:45;99549.55;;;5.41;59.86
51926;BME280;37952;51.938;15.480;2023-03-15T12:30:54;99560.04;;;5.54;60.65
51926;BME280;37952;51.938;15.480;2023-03-15T12:33:58;99565.21;;;5.56;59.19
51926;BME280;37952;51.938;15.480;2023-03-15T12:40:53;99552.64;;;5.35;55.05
51926;BME280;37952;51.938;15.480;2023-03-15T12:50:57;99564.41;;;5.21;59.38
51926;BME280;37952;51.938;15.480;2023-03-15T12:54:01;99565.86;;;5.19;60.41
51926;BME280;37952;51.938;15.480;2023-03-15T13:01:49;99580.28;;;4.82;58.00
51926;BME280;37952;51.938;15.480;2023-03-15T13:05:09;99583.73;;;4.83;59.37
51926;BME280;37952;51.938;15.480;2023-03-15T13:08:29;99581.61;;;4.79;57.07
51926;BME280;37952;51.938;15.480;2023-03-15T13:14:56;99590.41;;;5.08;57.91
51926;BME280;37952;51.938;15.480;2023-03-15T13:18:11;99602.50;;;5.07;57.59
51926;BME280;37952;51.938;15.480;2023-03-15T13:25:24;99619.20;;;4.65;55.97
51926;BME280;37952;51.938;15.480;2023-03-15T13:28:22;99618.23;;;4.44;57.00
51926;BME280;37952;51.938;15.480;2023-03-15T13:31:28;99614.44;;;4.38;57.48
51926;BME280;37952;51.938;15.480;2023-03-15T13:34:33;99618.38;;;4.40;58.51
51926;BME280;37952;51.938;15.480;2023-03-15T13:37:43;99621.27;;;4.47;59.60
51926;BME280;37952;51.938;15.480;2023-03-15T13:40:47;99624.45;;;4.50;58.82
51926;BME280;37952;51.938;15.480;2023-03-15T13:44:00;99625.15;;;4.50;59.06
51926;BME280;37952;51.938;15.480;2023-03-15T13:47:06;99621.06;;;4.57;60.35
51926;BME280;37952;51.938;15.480;2023-03-15T13:50:18;99625.55;;;4.62;58.96
51926;BME280;37952;51.938;15.480;2023-03-15T13:53:24;99630.98;;;4.62;58.59
51926;BME280;37952;51.938;15.480;2023-03-15T13:56:55;99628.90;;;4.62;57.13
51926;BME280;37952;51.938;15.480;2023-03-15T14:00:08;99631.14;;;4.63;58.29
51926;BME280;37952;51.938;15.480;2023-03-15T14:03:15;99641.31;;;4.61;58.43
51926;BME280;37952;51.938;15.480;2023-03-15T14:06:25;99639.93;;;4.61;58.22
51926;BME280;37952;51.938;15.480;2023-03-15T14:09:30;99642.69;;;4.62;58.53
51926;BME280;37952;51.938;15.480;2023-03-15T14:12:33;99636.42;;;4.79;59.70
51926;BME280;37952;51.938;15.480;2023-03-15T14:15:41;99632.76;;;5.02;59.60
51926;BME280;37952;51.938;15.480;2023-03-15T14:18:45;99638.70;;;5.29;59.63
51926;BME280;37952;51.938;15.480;2023-03-15T14:21:55;99638.27;;;5.56;59.82
51926;BME280;37952;51.938;15.480;2023-03-15T14:24:58;99643.60;;;5.84;59.65
51926;BME280;37952;51.938;15.480;2023-03-15T14:28:03;99648.38;;;6.03;59.23
51926;BME280;37952;51.938;15.480;2023-03-15T14:31:06;99640.71;;;5.89;56.96
51926;BME280;37952;51.938;15.480;2023-03-15T14:37:36;99640.66;;;5.62;57.37
51926;BME280;37952;51.938;15.480;2023-03-15T14:40:40;99645.79;;;5.61;57.22
51926;BME280;37952;51.938;15.480;2023-03-15T14:43:43;99650.91;;;5.50;56.23
51926;BME280;37952;51.938;15.480;2023-03-15T14:46:46;99651.91;;;5.60;55.98
51926;BME280;37952;51.938;15.480;2023-03-15T14:49:50;99658.61;;;5.72;55.35
51926;BME280;37952;51.938;15.480;2023-03-15T14:52:53;99665.45;;;5.71;51.74
51926;BME280;37952;51.938;15.480;2023-03-15T14:55:56;99652.52;;;5.71;52.51
51926;BME280;37952;51.938;15.480;2023-03-15T14:58:58;99659.70;;;5.92;53.53
51926;BME280;37952;51.938;15.480;2023-03-15T15:02:04;99665.36;;;5.98;52.63
51926;BME280;37952;51.938;15.480;2023-03-15T15:08:25;99670.14;;;6.14;53.29
51926;BME280;37952;51.938;15.480;2023-03-15T15:11:28;99667.58;;;6.08;50.88
51926;BME280;37952;51.938;15.480;2023-03-15T15:14:31;99670.62;;;6.03;51.95
51926;BME280;37952;51.938;15.480;2023-03-15T15:17:36;99679.75;;;5.93;51.99
51926;BME280;37952;51.938;15.480;2023-03-15T15:20:39;99673.72;;;5.79;52.59
51926;BME280;37952;51.938;15.480;2023-03-15T15:23:44;99686.61;;;5.67;52.25
51926;BME280;37952;51.938;15.480;2023-03-15T15:26:59;99681.79;;;5.57;53.09
51926;BME280;37952;51.938;15.480;2023-03-15T15:30:02;99688.12;;;5.47;52.96
51926;BME280;37952;51.938;15.480;2023-03-15T15:33:07;99686.20;;;5.56;54.00
51926;BME280;37952;51.938;15.480;2023-03-15T15:36:15;99695.78;;;5.61;52.57
51926;BME280;37952;51.938;15.480;2023-03-15T15:39:23;99709.85;;;5.54;51.55
51926;BME280;37952;51.938;15.480;2023-03-15T15:42:27;99705.11;;;5.42;51.26
51926;BME280;37952;51.938;15.480;2023-03-15T15:45:30;99710.73;;;5.41;52.98
51926;BME280;37952;51.938;15.480;2023-03-15T15:48:36;99713.14;;;5.29;52.62
51926;BME280;37952;51.938;15.480;2023-03-15T15:52:01;99718.41;;;5.23;53.46
51926;BME280;37952;51.938;15.480;2023-03-15T15:55:14;99724.59;;;5.17;52.93
51926;BME280;37952;51.938;15.480;2023-03-15T15:58:17;99723.44;;;5.20;53.56
51926;BME280;37952;51.938;15.480;2023-03-15T16:01:20;99730.29;;;4.96;52.84
51926;BME280;37952;51.938;15.480;2023-03-15T16:04:23;99725.02;;;5.01;54.02
51926;BME280;37952;51.938;15.480;2023-03-15T16:07:26;99728.61;;;5.08;54.96
51926;BME280;37952;51.938;15.480;2023-03-15T16:10:29;99731.58;;;5.12;54.96
51926;BME280;37952;51.938;15.480;2023-03-15T16:13:32;99735.50;;;5.11;55.07
51926;BME280;37952;51.938;15.480;2023-03-15T16:16:35;99737.45;;;5.05;55.09
51926;BME280;37952;51.938;15.480;2023-03-15T16:19:38;99734.44;;;4.92;54.69
51926;BME280;37952;51.938;15.480;2023-03-15T16:22:48;99740.67;;;4.89;55.21
51926;BME280;37952;51.938;15.480;2023-03-15T16:25:53;99754.02;;;4.83;55.04
51926;BME280;37952;51.938;15.480;2023-03-15T16:28:57;99750.86;;;4.74;55.55
51926;BME280;37952;51.938;15.480;2023-03-15T16:32:00;99760.79;;;4.74;55.98
51926;BME280;37952;51.938;15.480;2023-03-15T16:35:34;99766.63;;;4.72;55.99
51926;BME280;37952;51.938;15.480;2023-03-15T16:38:37;99771.02;;;4.66;55.84
51926;BME280;37952;51.938;15.480;2023-03-15T16:41:40;99773.67;;;4.60;55.91
51926;BME280;37952;51.938;15.480;2023-03-15T16:44:43;99775.63;;;4.54;56.14
51926;BME280;37952;51.938;15.480;2023-03-15T16:47:46;99775.38;;;4.51;56.26
51926;BME280;37952;51.938;15.480;2023-03-15T16:50:50;99778.89;;;4.46;56.29
51926;BME280;37952;51.938;15.480;2023-03-15T16:53:53;99784.69;;;4.40;56.05
51926;BME280;37952;51.938;15.480;2023-03-15T17:00:39;99796.86;;;4.31;57.07
51926;BME280;37952;51.938;15.480;2023-03-15T17:03:45;99799.85;;;4.30;56.97
51926;BME280;37952;51.938;15.480;2023-03-15T17:06:48;99802.11;;;4.30;57.25
51926;BME280;37952;51.938;15.480;2023-03-15T17:09:53;99806.07;;;4.32;57.29
51926;BME280;37952;51.938;15.480;2023-03-15T17:12:59;99812.29;;;4.34;57.25
51926;BME280;37952;51.938;15.480;2023-03-15T17:16:02;99813.21;;;4.32;57.07
51926;BME280;37952;51.938;15.480;2023-03-15T17:19:09;99819.23;;;4.29;57.24
51926;BME280;37952;51.938;15.480;2023-03-15T17:22:17;99827.81;;;4.28;57.13
51926;BME280;37952;51.938;15.480;2023-03-15T17:25:22;99836.48;;;4.25;57.20
51926;BME280;37952;51.938;15.480;2023-03-15T17:28:25;99838.67;;;4.22;57.40
51926;BME280;37952;51.938;15.480;2023-03-15T17:31:29;99845.21;;;4.19;57.34
51926;BME280;37952;51.938;15.480;2023-03-15T17:34:32;99850.52;;;4.11;57.50
51926;BME280;37952;51.938;15.480;2023-03-15T17:37:36;99858.52;;;4.07;57.34
51926;BME280;37952;51.938;15.480;2023-03-15T17:40:40;99868.45;;;4.07;57.69
51926;BME280;37952;51.938;15.480;2023-03-15T17:43:44;99870.67;;;4.09;57.77
51926;BME280;37952;51.938;15.480;2023-03-15T17:46:47;99871.83;;;4.11;57.82
51926;BME280;37952;51.938;15.480;2023-03-15T17:49:51;99875.10;;;4.12;57.61
51926;BME280;37952;51.938;15.480;2023-03-15T17:52:56;99875.14;;;4.11;57.84
51926;BME280;37952;51.938;15.480;2023-03-15T17:56:00;99877.61;;;4.10;57.70
51926;BME280;37952;51.938;15.480;2023-03-15T17:59:22;99880.25;;;4.09;57.73
51926;BME280;37952;51.938;15.480;2023-03-15T18:02:25;99882.80;;;4.05;57.68
51926;BME280;37952;51.938;15.480;2023-03-15T18:05:28;99891.00;;;4.06;57.89
51926;BME280;37952;51.938;15.480;2023-03-15T18:08:32;99896.58;;;4.06;57.67
51926;BME280;37952;51.938;15.480;2023-03-15T18:11:35;99896.83;;;4.03;57.44
51926;BME280;37952;51.938;15.480;2023-03-15T18:14:38;99898.48;;;4.01;57.61
51926;BME280;37952;51.938;15.480;2023-03-15T18:17:41;99898.52;;;3.99;56.92
51926;BME280;37952;51.938;15.480;2023-03-15T18:20:48;99896.52;;;3.97;57.24
51926;BME280;37952;51.938;15.480;2023-03-15T18:23:53;99901.61;;;3.96;56.98